.
WxDataArchive / Data Records for 2014-06-07
2014-06-06 June 2014 2014-06-08

Data Records for Saturday, 07 June 2014

Time	Temp	Chill	HIndex	Humid	Dewpt	 Wind 	HiWind	WindDir	Rain 	Barom
-----	----	-----	------	-----	-----	------	------	-------	-----	-----
00:00	62.1	62.1	62.1	71	52.6	0	0	---	0.00	29.974 
00:05	61.8	61.8	61.8	72	52.7	0	0	---	0.00	29.974 
00:10	61.6	61.6	61.6	73	52.9	0	0	---	0.00	29.974 
00:15	61.5	61.5	61.5	73	52.8	0	0	---	0.00	29.973 
00:20	61.3	61.3	61.3	74	52.9	0	0	---	0.00	29.973 
00:25	61.2	61.2	61.2	74	52.8	0	0	---	0.00	29.973 
00:30	61.0	61.0	61.0	75	53.0	0	0	---	0.00	29.972 
00:35	60.9	60.9	60.9	75	52.9	0	0	---	0.00	29.972 
00:40	60.7	60.7	60.7	75	52.7	0	0	---	0.00	29.972 
00:45	60.4	60.4	60.4	76	52.8	0	0	---	0.00	29.976 
00:50	60.4	60.4	60.4	76	52.8	0	0	---	0.00	29.976 
00:55	60.2	60.2	60.2	77	53.0	0	0	---	0.00	29.976 
01:00	60.1	60.1	60.1	78	53.2	0	0	---	0.00	29.979 
01:05	60.1	60.1	60.1	79	53.6	0	0	---	0.00	29.979 
01:10	60.1	60.1	60.1	80	53.9	0	0	---	0.00	29.979 
01:15	60.1	60.1	60.1	80	53.9	0	0	---	0.00	29.982 
01:20	59.9	59.9	59.9	80	53.7	0	0	---	0.00	29.982 
01:25	59.9	59.9	59.9	80	53.7	0	0	---	0.00	29.982 
01:30	59.8	59.8	59.8	81	54.0	0	0	---	0.00	29.988 
01:35	59.8	59.8	59.8	81	54.0	0	0	---	0.00	29.988 
01:40	59.6	59.6	59.6	81	53.8	0	0	---	0.00	29.988 
01:45	59.5	59.5	59.5	81	53.7	0	0	---	0.00	29.982 
01:50	59.5	59.5	59.5	81	53.7	0	0	---	0.00	29.982 
01:55	59.3	59.3	59.3	81	53.5	0	0	---	0.00	29.982 
02:00	59.3	59.3	59.3	81	53.5	0	0	---	0.00	29.984 
02:05	59.2	59.2	59.2	81	53.4	0	0	---	0.00	29.984 
02:10	59.0	59.0	59.0	81	53.2	0	0	---	0.00	29.984 
02:15	58.9	58.9	58.9	82	53.4	0	0	---	0.00	29.975 
02:20	58.9	58.9	58.9	82	53.4	0	0	---	0.00	29.975 
02:25	58.7	58.7	58.7	82	53.2	0	0	---	0.00	29.975 
02:30	58.6	58.6	58.6	83	53.4	0	0	---	0.00	29.974 
02:35	58.4	58.4	58.4	83	53.3	0	0	---	0.00	29.974 
02:40	58.3	58.3	58.3	84	53.5	0	0	---	0.00	29.974 
02:45	58.3	58.3	58.3	84	53.5	0	0	---	0.00	29.975 
02:50	58.1	58.1	58.1	84	53.3	0	0	---	0.00	29.975 
02:55	58.0	58.0	58.0	84	53.2	0	0	---	0.00	29.975 
03:00	58.0	58.0	58.0	84	53.2	0	0	---	0.00	29.971 
03:05	57.8	57.8	57.8	85	53.3	0	0	---	0.00	29.971 
03:10	57.6	57.6	57.6	85	53.1	0	0	---	0.00	29.971 
03:15	57.5	57.5	57.5	85	53.0	0	0	---	0.00	29.966 
03:20	57.3	57.3	57.3	86	53.1	0	0	---	0.00	29.966 
03:25	57.3	57.3	57.3	86	53.1	0	0	---	0.00	29.966 
03:30	57.2	57.2	57.2	86	53.0	0	0	---	0.00	29.964 
03:35	57.0	57.0	57.0	87	53.2	0	0	---	0.00	29.964 
03:40	57.0	57.0	57.0	87	53.2	0	0	---	0.00	29.964 
03:45	56.9	56.9	56.9	87	53.1	0	0	---	0.00	29.961 
03:50	56.7	56.7	56.7	87	52.9	0	0	---	0.00	29.961 
03:55	56.6	56.6	56.6	87	52.8	0	0	---	0.00	29.961 
04:00	56.5	56.5	56.5	87	52.7	0	0	---	0.00	29.963 
04:05	56.5	56.5	56.5	88	53.0	0	0	---	0.00	29.963 
04:10	56.3	56.3	56.3	88	52.8	0	0	---	0.00	29.963 
04:15	56.5	56.5	56.5	88	53.0	0	0	---	0.00	29.968 
04:20	56.3	56.3	56.3	89	53.1	0	0	---	0.00	29.968 
04:25	56.3	56.3	56.3	89	53.1	0	0	---	0.00	29.968 
04:30	56.3	56.3	56.3	89	53.1	0	0	---	0.00	29.966 
04:35	56.3	56.3	56.3	90	53.4	0	0	---	0.00	29.966 
04:40	56.3	56.3	56.3	90	53.4	0	0	---	0.00	29.966 
04:45	56.3	56.3	56.3	90	53.4	0	0	---	0.00	29.972 
04:50	56.3	56.3	56.3	90	53.4	0	0	---	0.00	29.972 
04:55	56.3	56.3	56.3	90	53.4	0	0	---	0.00	29.972 
05:00	56.2	56.2	56.2	90	53.3	0	0	---	0.00	29.969 
05:05	55.9	55.9	55.9	90	53.0	0	0	---	0.00	29.969 
05:10	55.7	55.7	55.7	91	53.1	0	0	---	0.00	29.969 
05:15	55.7	55.7	55.7	91	53.1	0	0	---	0.00	29.965 
05:20	55.6	55.6	55.6	91	53.0	0	0	---	0.00	29.965 
05:25	55.4	55.4	55.4	91	52.8	0	0	---	0.00	29.965 
05:30	55.4	55.4	55.4	91	52.8	0	0	---	0.00	29.972 
05:35	55.4	55.4	55.4	91	52.8	0	0	---	0.00	29.972 
05:40	55.4	55.4	55.4	91	52.8	0	0	---	0.00	29.972 
05:45	55.3	55.3	55.3	92	53.0	0	0	---	0.00	29.976 
05:50	55.1	55.1	55.1	92	52.8	0	0	---	0.00	29.976 
05:55	55.1	55.1	55.1	92	52.8	0	0	---	0.00	29.976 
06:00	55.1	55.1	55.1	92	52.8	0	0	---	0.00	29.982 
06:05	55.0	55.0	55.0	92	52.7	0	0	---	0.00	29.982 
06:10	55.0	55.0	55.0	92	52.7	0	0	---	0.00	29.982 
06:15	55.0	55.0	55.0	92	52.7	0	0	---	0.00	29.994 
06:20	55.0	55.0	55.0	92	52.7	0	0	---	0.00	29.994 
06:25	54.8	54.8	54.8	92	52.5	0	0	---	0.00	29.994 
06:30	54.8	54.8	54.8	92	52.5	0	0	---	0.00	29.998 
06:35	54.8	54.8	54.8	92	52.5	0	0	---	0.00	29.998 
06:40	54.8	54.8	54.8	92	52.5	0	0	---	0.00	29.998 
06:45	54.8	54.8	54.8	92	52.5	0	0	---	0.00	30.007 
06:50	55.0	55.0	55.0	92	52.7	0	0	---	0.00	30.007 
06:55	55.1	55.1	55.1	92	52.8	0	0	---	0.00	30.007 
07:00	55.3	55.3	55.3	93	53.3	0	1	0	0.00	30.004 
07:05	55.6	55.6	55.6	93	53.6	0	0	---	0.00	30.004 
07:10	55.9	55.9	55.9	93	53.9	0	0	---	0.00	30.004 
07:15	56.2	56.2	56.2	93	54.2	0	0	---	0.00	30.006 
07:20	56.7	56.7	56.7	93	54.7	0	0	---	0.00	30.006 
07:25	57.2	57.2	57.2	93	55.2	0	0	---	0.00	30.006 
07:30	58.1	58.1	58.1	93	56.1	0	0	---	0.00	30.000 
07:35	58.6	58.6	58.6	92	56.3	0	0	---	0.00	30.000 
07:40	59.0	59.0	59.0	92	56.7	0	0	---	0.00	30.000 
07:45	59.5	59.5	59.5	92	57.2	0	0	---	0.00	30.001 
07:50	60.4	60.4	60.4	91	57.8	0	0	---	0.00	30.001 
07:55	61.0	61.0	61.0	90	58.0	0	0	---	0.00	30.001 
08:00	62.3	62.3	62.3	86	58.1	0	1	0	0.00	30.005 
08:05	63.5	63.5	63.5	82	57.9	0	1	0	0.00	30.005 
08:10	64.2	64.2	64.2	80	57.9	0	0	---	0.00	30.005 
08:15	64.8	64.8	64.8	79	58.1	0	0	---	0.00	30.010 
08:20	66.0	66.0	66.0	76	58.2	0	0	---	0.00	30.010 
08:25	66.9	66.9	66.9	74	58.3	0	1	0	0.00	30.010 
08:30	67.9	67.9	67.9	73	58.9	0	0	---	0.00	30.015 
08:35	68.6	68.6	68.6	68	57.6	0	1	0	0.00	30.015 
08:40	69.3	69.3	69.3	68	58.3	0	1	0	0.00	30.015 
08:45	69.8	69.8	69.8	65	57.5	0	1	0	0.00	30.010 
08:50	70.3	70.3	70.3	65	58.0	0	1	0	0.00	30.010 
08:55	70.8	70.8	70.8	64	58.0	0	1	0	0.00	30.010 
09:00	71.3	71.3	71.3	62	57.6	0	1	0	0.00	30.003 
09:05	71.8	71.8	71.8	61	57.6	0	2	0	0.00	30.003 
09:10	72.0	72.0	72.0	59	56.9	0	1	0	0.00	30.003 
09:15	72.0	72.0	72.0	58	56.4	0	2	0	0.00	30.004 
09:20	72.5	72.5	72.5	55	55.4	0	2	0	0.00	30.004 
09:25	73.7	73.7	73.7	53	55.5	0	1	0	0.00	30.004 
09:30	74.4	74.4	74.4	53	56.1	0	1	0	0.00	30.002 
09:35	75.3	75.3	77.7	54	57.5	0	2	0	0.00	30.002 
09:40	75.8	75.8	78.0	52	56.9	0	1	22	0.00	30.002 
09:45	76.0	76.0	78.1	52	57.1	0	1	22	0.00	30.000 
09:50	76.3	76.3	78.2	51	56.8	0	1	22	0.00	30.000 
09:55	76.8	76.8	78.5	49	56.2	0	2	22	0.00	30.000 
10:00	77.2	77.2	78.7	48	56.0	0	1	22	0.00	30.001 
10:05	77.2	77.2	78.7	48	56.0	0	1	22	0.00	30.001 
10:10	77.7	77.7	78.8	45	54.6	0	1	22	0.00	30.001 
10:15	77.9	77.9	79.1	48	56.6	0	3	22	0.00	29.999 
10:20	78.1	78.1	79.1	46	55.6	0	1	45	0.00	29.999 
10:25	78.3	78.3	79.2	46	55.8	0	2	45	0.00	29.999 
10:30	78.5	78.5	79.2	44	54.7	0	3	45	0.00	29.987 
10:35	78.3	78.3	79.1	43	53.9	0	1	45	0.00	29.987 
10:40	78.3	78.3	79.2	46	55.8	0	1	45	0.00	29.987 
10:45	78.5	78.5	79.3	45	55.4	0	1	45	0.00	29.984 
10:50	79.2	79.2	79.6	43	54.7	0	2	45	0.00	29.984 
10:55	79.2	79.2	79.6	43	54.7	0	2	22	0.00	29.984 
11:00	79.4	79.4	79.7	42	54.3	1	3	22	0.00	29.983 
11:05	79.4	79.4	79.9	45	56.2	0	1	22	0.00	29.983 
11:10	79.8	79.8	79.8	40	53.3	0	1	22	0.00	29.983 
11:15	80.3	80.3	80.1	39	53.1	0	2	22	0.00	29.985 
11:20	80.7	80.7	80.4	40	54.1	0	2	22	0.00	29.985 
11:25	80.7	80.7	80.7	43	56.1	0	2	22	0.00	29.985 
11:30	80.7	80.7	80.3	39	53.4	1	4	112	0.00	29.986 
11:35	80.9	80.9	80.6	40	54.3	0	3	112	0.00	29.986 
11:40	80.9	80.9	80.7	41	55.0	0	2	112	0.00	29.986 
11:45	80.5	80.5	80.2	39	53.2	1	2	68	0.00	29.983 
11:50	80.7	80.7	80.2	37	52.0	0	4	90	0.00	29.983 
11:55	81.1	81.1	80.4	36	51.6	1	3	90	0.00	29.983 
12:00	81.1	81.1	80.3	35	50.8	1	3	90	0.00	29.980 
12:05	80.9	80.9	80.2	36	51.4	0	2	90	0.00	29.980 
12:10	80.9	80.9	80.5	39	53.6	1	2	90	0.00	29.980 
12:15	81.1	81.1	80.5	38	53.1	0	2	90	0.00	29.975 
12:20	80.9	80.9	80.4	38	52.9	0	1	90	0.00	29.975 
12:25	81.4	81.4	80.6	36	51.9	0	1	90	0.00	29.975 
12:30	81.1	81.1	80.2	34	50.0	1	3	90	0.00	29.969 
12:35	81.1	81.1	80.4	37	52.3	0	2	292	0.00	29.969 
12:40	81.4	81.4	80.3	33	49.5	1	2	90	0.00	29.969 
12:45	81.4	81.4	80.3	33	49.5	1	3	112	0.00	29.960 
12:50	81.1	81.1	80.2	34	50.0	1	3	112	0.00	29.960 
12:55	80.5	80.5	79.8	34	49.5	1	4	112	0.00	29.960 
13:00	80.5	80.5	79.9	36	51.1	0	1	112	0.00	29.958 
13:05	80.9	80.9	80.1	35	50.7	0	3	112	0.00	29.958 
13:10	81.4	81.4	80.7	37	52.6	0	2	112	0.00	29.958 
13:15	81.6	81.6	80.6	35	51.3	0	3	112	0.00	29.953 
13:20	81.8	81.8	80.5	32	49.0	0	2	225	0.00	29.953 
13:25	81.1	81.1	80.0	32	48.4	0	1	270	0.00	29.953 
13:30	80.9	80.9	80.1	35	50.7	0	3	270	0.00	29.948 
13:35	81.1	81.1	80.8	41	55.1	0	3	270	0.00	29.948 
13:40	81.8	81.8	80.8	35	51.4	0	3	270	0.00	29.948 
13:45	82.4	82.4	80.9	32	49.5	0	2	112	0.00	29.950 
13:50	82.6	82.6	81.4	35	52.1	0	2	112	0.00	29.950 
13:55	82.8	82.8	81.2	32	49.9	1	2	112	0.00	29.950 
14:00	82.6	82.6	81.3	34	51.4	0	2	112	0.00	29.941 
14:05	82.6	82.6	81.0	31	48.9	0	2	112	0.00	29.941 
14:10	82.8	82.8	81.6	35	52.3	1	3	112	0.00	29.941 
14:15	83.0	83.0	81.3	31	49.2	1	3	90	0.00	29.936 
14:20	83.2	83.2	82.0	36	53.4	0	1	270	0.00	29.936 
14:25	83.4	83.4	81.7	32	50.4	0	2	270	0.00	29.936 
14:30	83.0	83.0	81.1	29	47.4	0	2	270	0.00	29.926 
14:35	82.6	82.6	81.0	31	48.9	0	1	270	0.00	29.926 
14:40	82.4	82.4	81.1	34	51.2	0	3	270	0.00	29.926 
14:45	82.4	82.4	80.9	31	48.7	0	2	270	0.00	29.915 
14:50	82.4	82.4	81.3	36	52.7	0	3	270	0.00	29.915 
14:55	82.4	82.4	81.0	33	50.4	0	2	292	0.00	29.915 
15:00	82.4	82.4	81.1	34	51.2	0	2	292	0.00	29.917 
15:05	82.8	82.8	81.3	33	50.7	0	2	292	0.00	29.917 
15:10	82.4	82.4	81.2	35	52.0	1	4	292	0.00	29.917 
15:15	82.8	82.8	81.6	35	52.3	0	2	292	0.00	29.914 
15:20	83.2	83.2	81.6	32	50.2	0	3	112	0.00	29.914 
15:25	83.4	83.4	81.7	32	50.4	1	3	112	0.00	29.914 
15:30	83.6	83.6	81.8	31	49.7	1	3	90	0.00	29.900 
15:35	84.0	84.0	82.3	33	51.8	0	2	90	0.00	29.900 
15:40	84.3	84.3	83.0	36	54.4	0	3	90	0.00	29.900 
15:45	84.7	84.7	83.0	33	52.4	1	4	112	0.00	29.899 
15:50	84.3	84.3	82.4	31	50.3	1	3	112	0.00	29.899 
15:55	83.4	83.4	81.7	32	50.4	1	4	112	0.00	29.899 
16:00	82.4	82.4	81.2	35	52.0	0	3	135	0.00	29.901 
16:05	82.2	82.2	80.9	33	50.2	1	3	135	0.00	29.901 
16:10	82.6	82.6	81.0	31	48.9	1	3	112	0.00	29.901 
16:15	82.8	82.8	81.4	34	51.5	0	2	90	0.00	29.896 
16:20	83.0	83.0	81.3	31	49.2	0	2	90	0.00	29.896 
16:25	83.2	83.2	81.5	31	49.4	0	2	22	0.00	29.896 
16:30	83.4	83.4	82.2	36	53.6	0	2	22	0.00	29.893 
16:35	83.2	83.2	81.5	31	49.4	0	2	22	0.00	29.893 
16:40	83.2	83.2	81.7	33	51.1	1	3	0	0.00	29.893 
16:45	83.4	83.4	81.7	32	50.4	0	3	90	0.00	29.893 
16:50	83.6	83.6	81.8	31	49.7	1	5	112	0.00	29.893 
16:55	83.6	83.6	81.7	30	48.9	1	3	68	0.00	29.893 
17:00	83.2	83.2	81.8	34	51.9	0	2	22	0.00	29.888 
17:05	83.0	83.0	81.4	32	50.1	0	3	22	0.00	29.888 
17:10	83.2	83.2	81.7	33	51.1	0	3	22	0.00	29.888 
17:15	83.2	83.2	81.4	30	48.5	1	3	90	0.00	29.882 
17:20	83.2	83.2	81.5	31	49.4	1	2	90	0.00	29.882 
17:25	83.4	83.4	82.1	35	52.8	0	2	90	0.00	29.882 
17:30	83.4	83.4	81.6	31	49.6	0	1	90	0.00	29.879 
17:35	83.2	83.2	81.5	31	49.4	0	2	90	0.00	29.879 
17:40	82.8	82.8	81.2	31	49.0	0	2	90	0.00	29.879 
17:45	82.4	82.4	80.9	32	49.5	0	2	90	0.00	29.879 
17:50	81.8	81.8	80.4	31	48.2	1	3	90	0.00	29.879 
17:55	81.6	81.6	80.5	33	49.7	0	1	112	0.00	29.879 
18:00	81.1	81.1	79.9	31	47.6	1	4	135	0.00	29.873 
18:05	80.9	80.9	80.1	34	49.9	0	2	135	0.00	29.873 
18:10	80.9	80.9	79.9	32	48.2	0	2	135	0.00	29.873 
18:15	80.9	80.9	79.9	32	48.2	0	2	135	0.00	29.869 
18:20	80.9	80.9	80.0	33	49.1	0	3	112	0.00	29.869 
18:25	80.9	80.9	79.9	32	48.2	0	1	112	0.00	29.869 
18:30	80.7	80.7	79.9	34	49.7	0	1	112	0.00	29.864 
18:35	80.5	80.5	79.6	32	47.9	0	1	112	0.00	29.864 
18:40	80.5	80.5	79.8	34	49.5	0	2	112	0.00	29.864 
18:45	80.3	80.3	79.5	32	47.7	0	1	112	0.00	29.866 
18:50	80.3	80.3	79.7	34	49.3	0	1	112	0.00	29.866 
18:55	80.3	80.3	79.6	33	48.5	0	1	112	0.00	29.866 
19:00	80.3	80.3	79.6	33	48.5	0	1	112	0.00	29.857 
19:05	80.3	80.3	79.7	34	49.3	0	1	112	0.00	29.857 
19:10	80.3	80.3	79.7	34	49.3	0	2	112	0.00	29.857 
19:15	80.1	80.1	79.5	34	49.2	0	1	112	0.00	29.852 
19:20	79.9	79.9	79.5	35	49.8	0	1	112	0.00	29.852 
19:25	79.6	79.6	79.3	35	49.5	0	1	112	0.00	29.852 
19:30	79.4	79.4	79.2	36	50.1	0	1	112	0.00	29.849 
19:35	79.2	79.2	79.1	35	49.2	0	1	112	0.00	29.849 
19:40	79.2	79.2	79.1	35	49.2	0	2	112	0.00	29.849 
19:45	79.0	79.0	79.0	35	49.0	0	1	158	0.00	29.847 
19:50	79.0	79.0	79.0	35	49.0	0	2	158	0.00	29.847 
19:55	78.8	78.8	78.8	35	48.8	0	2	158	0.00	29.847 
20:00	78.8	78.8	78.8	35	48.8	0	1	158	0.00	29.843 
20:05	78.8	78.8	78.8	35	48.8	0	1	158	0.00	29.843 
20:10	78.6	78.6	78.8	36	49.4	0	0	---	0.00	29.843 
20:15	78.5	78.5	78.9	38	50.8	0	0	---	0.00	29.832 
20:20	78.3	78.3	78.8	38	50.6	0	0	---	0.00	29.832 
20:25	78.1	78.1	78.7	39	51.1	0	0	---	0.00	29.832 
20:30	77.7	77.7	78.5	39	50.7	0	1	158	0.00	29.830 
20:35	77.6	77.6	78.5	39	50.7	0	0	---	0.00	29.830 
20:40	77.4	77.4	78.4	39	50.5	0	0	---	0.00	29.830 
20:45	77.0	77.0	78.2	39	50.1	0	0	---	0.00	29.824 
20:50	76.7	76.7	78.1	39	49.9	0	0	---	0.00	29.824 
20:55	76.5	76.5	78.0	39	49.7	0	0	---	0.00	29.824 
21:00	76.1	76.1	77.9	41	50.7	0	0	---	0.00	29.825 
21:05	75.8	75.8	77.8	42	51.1	0	0	---	0.00	29.825 
21:10	75.4	75.4	77.7	42	50.7	0	0	---	0.00	29.825 
21:15	74.9	74.9	74.9	42	50.2	0	0	---	0.00	29.814 
21:20	74.6	74.6	74.6	43	50.6	0	0	---	0.00	29.814 
21:25	74.2	74.2	74.2	44	50.9	0	0	---	0.00	29.814 
21:30	73.9	73.9	73.9	44	50.6	0	0	---	0.00	29.809 
21:35	73.7	73.7	73.7	45	51.0	0	0	---	0.00	29.809 
21:40	73.3	73.3	73.3	45	50.7	0	0	---	0.00	29.809 
21:45	73.2	73.2	73.2	46	51.2	0	0	---	0.00	29.808 
21:50	73.0	73.0	73.0	46	51.0	0	0	---	0.00	29.808 
21:55	72.8	72.8	72.8	46	50.8	0	0	---	0.00	29.808 
22:00	72.7	72.7	72.7	47	51.3	0	0	---	0.00	29.807 
22:05	72.5	72.5	72.5	48	51.7	0	0	---	0.00	29.807 
22:10	72.3	72.3	72.3	49	52.1	0	0	---	0.00	29.807 
22:15	72.3	72.3	72.3	49	52.1	0	0	---	0.00	29.800 
22:20	72.5	72.5	72.5	48	51.7	0	0	---	0.00	29.800 
22:25	72.5	72.5	72.5	47	51.1	0	0	---	0.00	29.800 
22:30	72.5	72.5	72.5	47	51.1	0	0	---	0.00	29.805 
22:35	72.5	72.5	72.5	48	51.7	0	0	---	0.00	29.805 
22:40	72.3	72.3	72.3	48	51.5	0	0	---	0.00	29.805 
22:45	72.0	72.0	72.0	48	51.2	0	0	---	0.00	29.809 
22:50	71.8	71.8	71.8	50	52.1	0	0	---	0.00	29.809 
22:55	71.5	71.5	71.5	50	51.9	0	0	---	0.00	29.809 
23:00	71.1	71.1	71.1	51	52.0	0	0	---	0.00	29.802 
23:05	71.1	71.1	71.1	51	52.0	0	1	158	0.00	29.802 
23:10	70.9	70.9	70.9	51	51.9	0	0	---	0.00	29.802 
23:15	70.8	70.8	70.8	52	52.3	0	0	---	0.00	29.803 
23:20	70.6	70.6	70.6	52	52.1	0	0	---	0.00	29.803 
23:25	70.3	70.3	70.3	53	52.3	0	0	---	0.00	29.803 
23:30	69.9	69.9	69.9	53	52.0	0	0	---	0.00	29.803 
23:35	69.6	69.6	69.6	54	52.2	0	0	---	0.00	29.803 
23:40	69.4	69.4	69.4	54	52.0	0	0	---	0.00	29.803 
23:45	69.1	69.1	69.1	55	52.2	0	0	---	0.00	29.807 
23:50	68.9	68.9	68.9	55	52.1	0	0	---	0.00	29.807 
23:55	68.9	68.9	68.9	56	52.5	0	0	---	0.00	29.807 

CoCoRaHS
IN-AL-39
A2 Web Hosting
Creative Commons License
GoDaddy
search engine by freefind advanced

loaded 2018-11-20 15:13:04 • last modified 2010-11-18 10:43:29
Privacy PolicyDisclaimer
• wx.awcolley.com is powered by PmWiki v.2002016 •
• all content (unless otherwise noted) © 2018 A W Colley